Egyek, Hungary
Current Conditions -  °F | °C
As of 5:45 PM on Wednesday 17 Dec 2014 (Local Time) from LHDC Reporting Station
Scattered Clouds Scattered Clouds  
Wind Chill: 41°   Ceiling: Unl
Heat Index: 41°   Visibility: 5mi
Dew Point: 39°   Wind: 2mph
Humidity: 93%   Direction: 290°WNW
Pressure: 29.91"   Gusts: NA
Location:  47.62°N, 20.89°E
Report Text: LHDC 171545Z 29002KT 8000 SCT083 SCT200 05/04 Q1013
Loading
Personal Weather Stations






























Interactive Weather Map New forecast layout! Learn more

10-Day Weather Forecast

Advertisements
Track Severe Weather on mobile